createdAt,value
2018-12-04T00:00:04.095Z,11.00
2018-12-04T00:02:52.725Z,11.00
2018-12-04T00:05:41.190Z,11.00
2018-12-04T00:08:29.744Z,10.90
2018-12-04T00:11:18.170Z,10.90
2018-12-04T00:14:06.874Z,10.90
2018-12-04T00:16:55.314Z,10.90
2018-12-04T00:19:43.757Z,10.80
2018-12-04T00:22:32.323Z,10.80
2018-12-04T00:25:20.741Z,10.80
2018-12-04T00:28:09.186Z,10.80
2018-12-04T00:30:57.987Z,10.80
2018-12-04T00:34:05.384Z,10.70
2018-12-04T00:36:53.823Z,10.70
2018-12-04T00:39:42.250Z,10.80
2018-12-04T00:42:49.555Z,10.90
2018-12-04T00:45:56.867Z,10.90
2018-12-04T00:48:45.307Z,10.90
2018-12-04T00:51:33.725Z,10.80
2018-12-04T00:54:22.158Z,11.00
2018-12-04T00:57:10.615Z,11.00
2018-12-04T01:00:17.905Z,11.00
2018-12-04T01:03:06.434Z,10.90
2018-12-04T01:05:54.849Z,10.90
2018-12-04T01:09:02.160Z,10.90
2018-12-04T01:11:50.675Z,10.90
2018-12-04T01:14:58.083Z,10.80
2018-12-04T01:17:46.510Z,10.80
2018-12-04T01:20:53.795Z,10.80
2018-12-04T01:24:01.098Z,10.80
2018-12-04T01:26:49.514Z,10.70
2018-12-04T01:29:37.961Z,10.80
2018-12-04T01:32:45.258Z,10.80
2018-12-04T01:35:33.686Z,10.80
2018-12-04T01:38:22.355Z,10.80
2018-12-04T01:41:10.781Z,10.80
2018-12-04T01:43:59.223Z,10.80
2018-12-04T01:46:47.726Z,10.80
2018-12-04T01:49:36.161Z,10.90
2018-12-04T01:55:23.679Z,10.80
2018-12-04T01:58:12.121Z,10.80
2018-12-04T02:01:19.414Z,10.80
2018-12-04T02:04:07.887Z,10.80
2018-12-04T02:06:56.319Z,10.80
2018-12-04T02:09:44.805Z,10.80
2018-12-04T02:12:33.299Z,10.80
2018-12-04T02:15:21.718Z,10.80
2018-12-04T02:18:10.173Z,10.80
2018-12-04T02:20:58.594Z,10.90
2018-12-04T02:24:05.915Z,10.80
2018-12-04T02:26:54.370Z,10.90
2018-12-04T02:29:42.875Z,10.80
2018-12-04T02:32:50.199Z,10.80
2018-12-04T02:38:46.451Z,10.80
2018-12-04T02:41:34.882Z,10.80
2018-12-04T02:44:23.317Z,10.80
2018-12-04T02:47:11.751Z,10.80
2018-12-04T02:50:00.190Z,10.80
2018-12-04T02:52:48.730Z,10.90
2018-12-04T02:55:30.194Z,10.80
2018-12-04T02:58:11.468Z,10.80
2018-12-04T03:00:52.670Z,10.90
2018-12-04T03:03:33.524Z,10.80
2018-12-04T03:06:14.266Z,10.80
2018-12-04T03:08:55.367Z,10.80
2018-12-04T03:11:36.292Z,10.70
2018-12-04T03:14:17.395Z,10.60
2018-12-04T03:16:58.678Z,10.60
2018-12-04T03:19:39.550Z,10.60
2018-12-04T03:22:20.212Z,10.60
2018-12-04T03:25:01.035Z,10.60
2018-12-04T03:27:42.059Z,10.60
2018-12-04T03:30:23.224Z,10.60
2018-12-04T03:33:04.352Z,10.60
2018-12-04T03:35:43.927Z,10.40
2018-12-04T03:38:51.264Z,10.40
2018-12-04T03:41:53.925Z,10.40
2018-12-04T03:44:30.422Z,10.40
2018-12-04T03:47:18.867Z,10.30
2018-12-04T03:50:07.403Z,10.20
2018-12-04T03:53:14.714Z,10.20
2018-12-04T03:56:03.143Z,10.20
2018-12-04T03:58:51.586Z,10.00
2018-12-04T04:01:40.114Z,10.00
2018-12-04T04:04:28.657Z,10.00
2018-12-04T04:07:35.956Z,10.00
2018-12-04T04:10:43.251Z,10.00
2018-12-04T04:16:26.485Z,10.00
2018-12-04T04:19:15.014Z,9.90
2018-12-04T04:22:03.534Z,9.90
2018-12-04T04:24:52.079Z,9.90
2018-12-04T04:27:40.605Z,9.90
2018-12-04T04:30:29.035Z,9.90
2018-12-04T04:33:17.471Z,9.80
2018-12-04T04:36:24.777Z,9.70
2018-12-04T04:39:13.207Z,9.80
2018-12-04T04:42:20.505Z,9.80
2018-12-04T04:45:27.807Z,9.70
2018-12-04T04:48:16.349Z,9.70
2018-12-04T04:51:04.858Z,9.70
2018-12-04T04:53:53.298Z,9.70
2018-12-04T04:56:41.727Z,9.70
2018-12-04T04:59:49.048Z,9.60
2018-12-04T05:06:24.896Z,9.60
2018-12-04T05:09:13.446Z,9.60
2018-12-04T05:12:20.739Z,9.60
2018-12-04T05:15:09.270Z,9.60
2018-12-04T05:17:57.809Z,9.50
2018-12-04T05:20:46.326Z,9.50
2018-12-04T05:23:53.642Z,9.60
2018-12-04T05:29:51.674Z,9.70
2018-12-04T05:32:40.099Z,9.70
2018-12-04T05:35:28.631Z,9.70
2018-12-04T05:38:17.050Z,9.60
2018-12-04T05:41:24.384Z,9.50
2018-12-04T05:44:12.902Z,9.50
2018-12-04T05:47:20.208Z,9.60
2018-12-04T05:50:27.614Z,9.60
2018-12-04T05:53:35.063Z,9.60
2018-12-04T05:56:42.387Z,9.60
2018-12-04T05:59:30.954Z,9.60
2018-12-04T06:02:19.387Z,9.60
2018-12-04T06:05:07.930Z,9.60
2018-12-04T06:08:15.247Z,9.60
2018-12-04T06:11:03.774Z,9.60
2018-12-04T06:13:52.735Z,9.60
2018-12-04T06:16:41.276Z,9.60
2018-12-04T06:19:29.714Z,9.60
2018-12-04T06:22:18.154Z,9.70
2018-12-04T06:25:07.007Z,9.70
2018-12-04T06:27:55.453Z,9.70
2018-12-04T06:31:02.774Z,9.80
2018-12-04T06:33:51.327Z,9.80
2018-12-04T06:36:39.854Z,9.90
2018-12-04T06:39:28.290Z,9.80
2018-12-04T06:42:16.726Z,9.90
2018-12-04T06:48:19.666Z,9.80
2018-12-04T06:51:08.191Z,9.80
2018-12-04T06:54:15.511Z,9.80
2018-12-04T06:57:04.030Z,9.70
2018-12-04T06:59:52.472Z,9.70
2018-12-04T07:02:40.934Z,9.60
2018-12-04T07:05:48.258Z,9.70
2018-12-04T07:08:36.782Z,9.60
2018-12-04T07:11:25.218Z,9.70
2018-12-04T07:14:13.686Z,9.70
2018-12-04T07:17:20.987Z,9.80
2018-12-04T07:20:09.746Z,9.80
2018-12-04T07:23:17.080Z,9.90
2018-12-04T07:26:24.406Z,9.90
2018-12-04T07:29:12.845Z,10.00
2018-12-04T07:32:20.160Z,10.10
2018-12-04T07:35:09.193Z,10.00
2018-12-04T07:37:57.674Z,10.00
2018-12-04T07:40:46.247Z,10.10
2018-12-04T07:43:34.670Z,10.20
2018-12-04T07:46:42.040Z,10.00
2018-12-04T07:49:49.404Z,10.10
2018-12-04T07:52:37.918Z,10.10
2018-12-04T07:58:41.062Z,10.10
2018-12-04T08:01:29.623Z,10.20
2018-12-04T08:04:18.055Z,10.30
2018-12-04T08:07:25.363Z,10.30
2018-12-04T08:10:13.815Z,10.30
2018-12-04T08:13:21.130Z,10.10
2018-12-04T08:16:21.225Z,10.10
2018-12-04T08:18:59.902Z,10.00
2018-12-04T08:21:48.342Z,10.00
2018-12-04T08:24:36.929Z,10.10
2018-12-04T08:27:27.399Z,10.00
2018-12-04T08:30:15.944Z,10.00
2018-12-04T08:33:04.463Z,10.10
2018-12-04T08:35:52.894Z,10.20
2018-12-04T08:38:41.340Z,10.10
2018-12-04T08:41:29.785Z,10.20
2018-12-04T08:44:37.144Z,10.20
2018-12-04T08:47:25.698Z,10.10
2018-12-04T08:50:33.023Z,10.10
2018-12-04T08:53:21.474Z,10.00
2018-12-04T08:56:09.941Z,10.00
2018-12-04T08:58:58.370Z,10.00
2018-12-04T09:02:05.700Z,10.00
2018-12-04T09:04:54.151Z,10.00
2018-12-04T09:07:42.602Z,10.10
2018-12-04T09:10:31.049Z,10.40
2018-12-04T09:13:19.562Z,10.80
2018-12-04T09:16:26.884Z,10.90
2018-12-04T09:19:15.441Z,11.20
2018-12-04T09:22:04.109Z,11.40
2018-12-04T09:24:54.501Z,11.60
2018-12-04T09:27:43.026Z,12.00
2018-12-04T09:30:31.478Z,11.90
2018-12-04T09:33:19.910Z,11.80
2018-12-04T09:36:08.439Z,11.60
2018-12-04T09:38:56.999Z,11.60
2018-12-04T09:42:04.601Z,11.60
2018-12-04T09:44:53.022Z,11.70
2018-12-04T09:47:41.559Z,11.80
2018-12-04T09:50:48.887Z,11.80
2018-12-04T09:53:37.404Z,11.80
2018-12-04T09:56:44.711Z,11.40
2018-12-04T09:59:33.246Z,11.70
2018-12-04T10:02:40.550Z,11.70
2018-12-04T10:05:47.879Z,11.60
2018-12-04T10:08:36.322Z,11.50
2018-12-04T10:11:24.894Z,11.30
2018-12-04T10:14:13.410Z,11.00
2018-12-04T10:17:01.985Z,11.00
2018-12-04T10:19:50.423Z,10.90
2018-12-04T10:22:38.914Z,11.10
2018-12-04T10:25:46.235Z,11.50
2018-12-04T10:28:35.184Z,11.40
2018-12-04T10:31:23.679Z,11.20
2018-12-04T10:34:12.474Z,11.20
2018-12-04T10:37:00.930Z,11.30
2018-12-04T10:39:49.364Z,11.30
2018-12-04T10:42:56.684Z,11.20
2018-12-04T10:45:45.250Z,11.30
2018-12-04T10:48:33.702Z,11.10
2018-12-04T10:51:22.211Z,11.20
2018-12-04T10:54:10.783Z,11.10
2018-12-04T10:57:18.107Z,11.10
2018-12-04T11:06:16.502Z,11.10
2018-12-04T11:09:07.322Z,11.50
2018-12-04T11:11:55.766Z,11.60
2018-12-04T11:14:44.294Z,11.50
2018-12-04T11:17:32.769Z,11.50
2018-12-04T11:20:40.151Z,11.20
2018-12-04T11:23:28.609Z,10.90
2018-12-04T11:26:17.035Z,10.80
2018-12-04T11:29:24.354Z,10.90
2018-12-04T11:32:12.791Z,10.80
2018-12-04T11:35:01.223Z,10.70
2018-12-04T11:38:08.537Z,10.60
2018-12-04T11:40:57.046Z,10.50
2018-12-04T11:44:04.370Z,10.40
2018-12-04T11:46:52.819Z,10.20
2018-12-04T11:49:41.258Z,10.20
2018-12-04T11:52:29.781Z,10.20
2018-12-04T11:55:37.086Z,10.20
2018-12-04T11:58:44.416Z,10.20
2018-12-04T12:01:32.930Z,10.20
2018-12-04T12:04:21.367Z,10.50
2018-12-04T12:07:28.688Z,10.60
2018-12-04T12:10:17.210Z,10.50
2018-12-04T12:13:24.532Z,10.60
2018-12-04T12:16:12.951Z,10.50
2018-12-04T12:19:01.403Z,10.60
2018-12-04T12:22:08.753Z,10.60
2018-12-04T12:24:57.439Z,10.50
2018-12-04T12:27:46.190Z,10.60
2018-12-04T12:30:35.155Z,10.50
2018-12-04T12:33:42.464Z,10.50
2018-12-04T12:36:31.006Z,10.50
2018-12-04T12:39:19.539Z,10.40
2018-12-04T12:42:07.971Z,10.50
2018-12-04T12:45:15.292Z,10.50
2018-12-04T12:48:03.824Z,10.60
2018-12-04T12:50:52.362Z,10.60
2018-12-04T12:53:59.686Z,10.50
2018-12-04T12:56:48.124Z,10.40
2018-12-04T12:59:55.440Z,10.30
2018-12-04T13:02:43.879Z,10.30
2018-12-04T13:05:32.318Z,10.30
2018-12-04T13:08:21.062Z,10.20
2018-12-04T13:11:28.375Z,10.20
2018-12-04T13:14:16.811Z,10.20
2018-12-04T13:17:05.339Z,10.20
2018-12-04T13:20:12.665Z,10.30
2018-12-04T13:23:01.197Z,10.20
2018-12-04T13:25:49.722Z,10.20
2018-12-04T13:28:57.050Z,10.20
2018-12-04T13:31:45.568Z,10.20
2018-12-04T13:34:52.887Z,10.10
2018-12-04T13:37:33.698Z,10.20
2018-12-04T13:40:14.983Z,10.20
2018-12-04T13:42:56.445Z,10.20
2018-12-04T13:45:37.556Z,10.20
2018-12-04T13:48:18.917Z,10.20
2018-12-04T13:51:00.154Z,10.30
2018-12-04T13:53:40.828Z,10.20
2018-12-04T13:56:22.348Z,10.20
2018-12-04T13:59:03.778Z,10.20
2018-12-04T14:01:43.306Z,10.20
2018-12-04T14:04:31.767Z,10.20
2018-12-04T14:07:39.074Z,10.20
2018-12-04T14:10:27.499Z,10.20
2018-12-04T14:13:15.932Z,10.10
2018-12-04T14:16:04.491Z,10.10
2018-12-04T14:19:11.790Z,10.10
2018-12-04T14:22:00.227Z,9.90
2018-12-04T14:24:48.664Z,9.80
2018-12-04T14:27:37.133Z,9.60
2018-12-04T14:30:25.763Z,9.70
2018-12-04T14:33:33.150Z,9.70
2018-12-04T14:36:21.768Z,9.60
2018-12-04T14:39:10.685Z,9.60
2018-12-04T14:41:59.129Z,9.60
2018-12-04T14:44:47.760Z,9.60
2018-12-04T14:47:55.038Z,9.60
2018-12-04T14:50:43.490Z,9.60
2018-12-04T14:53:51.036Z,9.60
2018-12-04T14:56:58.461Z,9.50
2018-12-04T14:59:46.992Z,9.50
2018-12-04T15:02:54.355Z,9.40
2018-12-04T15:05:42.882Z,9.30
2018-12-04T15:08:50.180Z,9.30
2018-12-04T15:12:54.653Z,9.10
2018-12-04T15:15:22.862Z,9.00
2018-12-04T15:17:51.185Z,8.90
2018-12-04T15:20:19.893Z,8.90
2018-12-04T15:22:48.336Z,8.80
2018-12-04T15:25:16.525Z,8.80
2018-12-04T15:27:44.727Z,8.80
2018-12-04T15:30:13.011Z,8.80
2018-12-04T15:32:41.285Z,8.80
2018-12-04T15:35:09.598Z,8.80
2018-12-04T15:37:37.858Z,8.70
2018-12-04T15:40:07.292Z,8.70
2018-12-04T15:42:35.566Z,8.70
2018-12-04T15:45:04.610Z,8.70
2018-12-04T15:47:33.007Z,8.60
2018-12-04T15:50:01.423Z,8.60
2018-12-04T15:52:29.747Z,8.60
2018-12-04T15:54:58.022Z,8.60
2018-12-04T15:57:26.281Z,8.50
2018-12-04T15:59:54.767Z,8.50
2018-12-04T16:02:22.977Z,8.50
2018-12-04T16:04:51.176Z,8.50
2018-12-04T16:07:21.689Z,8.50
2018-12-04T16:09:50.832Z,8.50
2018-12-04T16:12:20.145Z,8.50
2018-12-04T16:14:50.392Z,8.40
2018-12-04T16:17:19.337Z,8.50
2018-12-04T16:19:48.441Z,8.50
2018-12-04T16:22:17.282Z,8.50
2018-12-04T16:24:45.473Z,8.50
2018-12-04T16:27:14.207Z,8.50
2018-12-04T16:29:42.480Z,8.40
2018-12-04T16:32:10.681Z,8.50
2018-12-04T16:34:38.944Z,8.60
2018-12-04T16:37:07.220Z,8.70
2018-12-04T16:39:35.428Z,8.60
2018-12-04T16:42:03.797Z,8.80
2018-12-04T16:44:31.979Z,8.70
2018-12-04T16:47:00.155Z,8.70
2018-12-04T16:49:28.321Z,8.60
2018-12-04T16:51:56.513Z,8.50
2018-12-04T16:54:24.684Z,8.50
2018-12-04T16:56:52.865Z,8.50
2018-12-04T16:59:21.297Z,8.40
2018-12-04T17:01:50.773Z,8.40
2018-12-04T17:04:19.254Z,8.40
2018-12-04T17:06:47.559Z,8.30
2018-12-04T17:09:15.771Z,8.40
2018-12-04T17:11:44.483Z,8.40
2018-12-04T17:14:12.857Z,8.40
2018-12-04T17:16:41.056Z,8.40
2018-12-04T17:19:09.807Z,8.30
2018-12-04T17:21:38.001Z,8.30
2018-12-04T17:24:06.203Z,8.30
2018-12-04T17:26:34.425Z,8.30
2018-12-04T17:29:02.616Z,8.30
2018-12-04T17:31:30.822Z,8.30
2018-12-04T17:33:59.009Z,8.30
2018-12-04T17:38:50.117Z,8.30
2018-12-04T17:41:18.429Z,8.30
2018-12-04T17:43:46.635Z,8.10
2018-12-04T17:46:14.950Z,8.00
2018-12-04T17:48:43.167Z,7.90
2018-12-04T17:51:11.469Z,7.80
2018-12-04T17:53:39.661Z,7.80
2018-12-04T17:56:07.975Z,7.70
2018-12-04T17:58:36.244Z,7.60
2018-12-04T18:01:04.446Z,7.60
2018-12-04T18:03:32.649Z,7.60
2018-12-04T18:06:00.841Z,7.60
2018-12-04T18:08:29.045Z,7.60
2018-12-04T18:10:57.233Z,7.50
2018-12-04T18:13:25.425Z,7.50
2018-12-04T18:15:53.617Z,7.50
2018-12-04T18:18:21.820Z,7.50
2018-12-04T18:20:50.043Z,7.40
2018-12-04T18:23:18.288Z,7.40
2018-12-04T18:25:46.476Z,7.40
2018-12-04T18:28:14.678Z,7.40
2018-12-04T18:30:42.862Z,7.40
2018-12-04T18:33:11.056Z,7.40
2018-12-04T18:35:39.329Z,7.30
2018-12-04T18:38:07.529Z,7.30
2018-12-04T18:40:35.722Z,7.30
2018-12-04T18:43:04.105Z,7.30
2018-12-04T18:45:33.825Z,7.40
2018-12-04T18:48:02.017Z,7.40
2018-12-04T18:50:30.205Z,7.30
2018-12-04T18:52:58.406Z,7.30
2018-12-04T18:55:26.596Z,7.30
2018-12-04T18:57:54.794Z,7.30
2018-12-04T19:00:23.003Z,7.40
2018-12-04T19:02:53.290Z,7.40
2018-12-04T19:05:21.509Z,7.40
2018-12-04T19:07:49.700Z,7.40
2018-12-04T19:10:17.988Z,7.40
2018-12-04T19:12:46.279Z,7.40
2018-12-04T19:15:14.469Z,7.40
2018-12-04T19:17:42.760Z,7.40
2018-12-04T19:20:10.950Z,7.40
2018-12-04T19:22:39.281Z,7.40
2018-12-04T19:25:07.716Z,7.40
2018-12-04T19:27:35.925Z,7.40
2018-12-04T19:30:05.841Z,7.30
2018-12-04T19:32:34.173Z,7.40
2018-12-04T19:35:02.393Z,7.30
2018-12-04T19:37:30.619Z,7.30
2018-12-04T19:39:58.822Z,7.30
2018-12-04T19:42:27.005Z,7.40
2018-12-04T19:44:55.200Z,7.30
2018-12-04T19:47:23.451Z,7.30
2018-12-04T19:49:52.103Z,7.40
2018-12-04T19:52:20.331Z,7.30
2018-12-04T19:54:48.534Z,7.30
2018-12-04T19:57:16.717Z,7.30
2018-12-04T19:59:44.941Z,7.30
2018-12-04T20:02:13.229Z,7.30
2018-12-04T20:04:41.523Z,7.30
2018-12-04T20:07:09.730Z,7.30
2018-12-04T20:09:37.950Z,7.30
2018-12-04T20:12:06.145Z,7.20
2018-12-04T20:14:34.344Z,7.20
2018-12-04T20:17:02.536Z,7.30
2018-12-04T20:19:30.755Z,7.30
2018-12-04T20:21:59.195Z,7.30
2018-12-04T20:24:27.464Z,7.30
2018-12-04T20:26:55.727Z,7.20
2018-12-04T20:29:23.933Z,7.20
2018-12-04T20:31:52.232Z,7.20
2018-12-04T20:34:20.557Z,7.20
2018-12-04T20:36:48.759Z,7.10
2018-12-04T20:39:16.966Z,7.10
2018-12-04T20:41:45.469Z,7.10
2018-12-04T20:44:13.949Z,7.20
2018-12-04T20:46:42.741Z,7.10
2018-12-04T20:49:12.367Z,7.10
2018-12-04T20:51:41.027Z,7.10
2018-12-04T20:54:09.251Z,7.20
2018-12-04T20:56:37.609Z,7.20
2018-12-04T20:59:05.802Z,7.20
2018-12-04T21:01:34.538Z,7.20
2018-12-04T21:04:02.808Z,7.20
2018-12-04T21:06:30.976Z,7.10
2018-12-04T21:08:59.759Z,7.10
2018-12-04T21:11:28.033Z,7.10
2018-12-04T21:13:56.533Z,7.00
2018-12-04T21:16:24.749Z,7.10
2018-12-04T21:18:52.998Z,7.10
2018-12-04T21:21:21.185Z,7.00
2018-12-04T21:23:49.378Z,7.00
2018-12-04T21:26:17.642Z,7.00
2018-12-04T21:28:51.466Z,7.00
2018-12-04T21:31:25.207Z,7.00
2018-12-04T21:33:58.734Z,7.00
2018-12-04T21:37:31.576Z,7.00
2018-12-04T21:40:05.212Z,7.00
2018-12-04T21:43:39.813Z,7.00
2018-12-04T21:46:13.486Z,7.00
2018-12-04T21:48:41.969Z,7.00
2018-12-04T21:51:10.174Z,7.00
2018-12-04T21:53:38.371Z,7.10
2018-12-04T21:56:06.577Z,7.00
2018-12-04T21:58:34.807Z,7.00
2018-12-04T22:01:03.034Z,7.00
2018-12-04T22:03:31.234Z,7.10
2018-12-04T22:05:59.569Z,7.10
2018-12-04T22:08:27.759Z,7.00
2018-12-04T22:10:55.961Z,6.90
2018-12-04T22:13:24.472Z,6.90
2018-12-04T22:15:52.676Z,6.90
2018-12-04T22:18:20.872Z,7.00
2018-12-04T22:20:49.056Z,7.10
2018-12-04T22:23:17.249Z,7.00
2018-12-04T22:25:45.447Z,7.00
2018-12-04T22:28:13.637Z,6.90
2018-12-04T22:30:41.832Z,6.80
2018-12-04T22:33:10.017Z,6.80
2018-12-04T22:35:38.241Z,6.70
2018-12-04T22:38:06.429Z,6.70
2018-12-04T22:40:34.642Z,6.70
2018-12-04T22:43:03.219Z,6.80
2018-12-04T22:45:31.413Z,6.80
2018-12-04T22:47:59.601Z,6.70
2018-12-04T22:50:27.885Z,6.70
2018-12-04T22:52:56.369Z,6.70
2018-12-04T22:55:24.560Z,6.60
2018-12-04T22:57:52.750Z,6.60
2018-12-04T23:00:32.497Z,6.60
2018-12-04T23:03:00.709Z,6.60
2018-12-04T23:05:28.908Z,6.60
2018-12-04T23:07:57.115Z,6.60
2018-12-04T23:10:25.349Z,6.50
2018-12-04T23:12:53.541Z,6.50
2018-12-04T23:15:21.857Z,6.60
2018-12-04T23:17:50.329Z,6.60
2018-12-04T23:20:18.613Z,6.50
2018-12-04T23:22:46.805Z,6.60
2018-12-04T23:25:15.188Z,6.50
2018-12-04T23:27:43.456Z,6.30
2018-12-04T23:30:12.137Z,6.30
2018-12-04T23:32:40.416Z,6.30
2018-12-04T23:35:08.789Z,6.20
2018-12-04T23:37:37.085Z,6.20
2018-12-04T23:40:05.644Z,6.20
2018-12-04T23:42:33.851Z,6.20
2018-12-04T23:45:02.078Z,6.20
2018-12-04T23:47:30.468Z,6.30
2018-12-04T23:49:58.673Z,6.30
2018-12-04T23:52:27.193Z,6.30
2018-12-04T23:54:55.679Z,6.40
2018-12-04T23:57:23.873Z,6.40
2018-12-04T23:59:52.057Z,6.40
